sensor_id;sensor_type;location;lat;lon;timestamp;temperature;humidity
12632;DHT22;6381;45.748;12.106;2023-08-06T00:02:17;19.90;99.90
12632;DHT22;6381;45.748;12.106;2023-08-06T00:05:01;19.10;99.90
12632;DHT22;6381;45.748;12.106;2023-08-06T00:11:28;19.30;99.90
12632;DHT22;6381;45.748;12.106;2023-08-06T00:14:04;19.10;99.90
12632;DHT22;6381;45.748;12.106;2023-08-06T00:16:42;19.80;99.90
12632;DHT22;6381;45.748;12.106;2023-08-06T00:23:06;19.20;99.90
12632;DHT22;6381;45.748;12.106;2023-08-06T00:25:41;19.00;99.90
12632;DHT22;6381;45.748;12.106;2023-08-06T00:28:42;19.20;99.90
12632;DHT22;6381;45.748;12.106;2023-08-06T00:31:20;19.10;99.90
12632;DHT22;6381;45.748;12.106;2023-08-06T00:34:20;19.40;99.90
12632;DHT22;6381;45.748;12.106;2023-08-06T00:36:55;19.40;99.90
12632;DHT22;6381;45.748;12.106;2023-08-06T00:39:41;19.80;99.90
12632;DHT22;6381;45.748;12.106;2023-08-06T00:42:17;19.50;99.90
12632;DHT22;6381;45.748;12.106;2023-08-06T00:44:53;20.00;99.90
12632;DHT22;6381;45.748;12.106;2023-08-06T00:47:28;19.80;99.90
12632;DHT22;6381;45.748;12.106;2023-08-06T00:54:32;19.90;99.90
12632;DHT22;6381;45.748;12.106;2023-08-06T00:57:12;19.50;99.90
12632;DHT22;6381;45.748;12.106;2023-08-06T00:59:48;19.70;99.90
12632;DHT22;6381;45.748;12.106;2023-08-06T01:02:23;19.70;99.90
12632;DHT22;6381;45.748;12.106;2023-08-06T01:05:02;19.90;99.90
12632;DHT22;6381;45.748;12.106;2023-08-06T01:07:40;19.60;99.90
12632;DHT22;6381;45.748;12.106;2023-08-06T01:10:27;19.50;99.90
12632;DHT22;6381;45.748;12.106;2023-08-06T01:13:08;19.80;99.90
12632;DHT22;6381;45.748;12.106;2023-08-06T01:15:43;20.00;99.90
12632;DHT22;6381;45.748;12.106;2023-08-06T01:18:13;19.60;99.90
12632;DHT22;6381;45.748;12.106;2023-08-06T01:20:44;19.80;99.90
12632;DHT22;6381;45.748;12.106;2023-08-06T01:23:13;19.60;99.90
12632;DHT22;6381;45.748;12.106;2023-08-06T01:25:48;19.80;99.90
12632;DHT22;6381;45.748;12.106;2023-08-06T01:28:22;19.80;99.90
12632;DHT22;6381;45.748;12.106;2023-08-06T01:30:55;19.50;99.90
12632;DHT22;6381;45.748;12.106;2023-08-06T01:33:28;19.50;99.90
12632;DHT22;6381;45.748;12.106;2023-08-06T01:36:03;19.80;99.90
12632;DHT22;6381;45.748;12.106;2023-08-06T01:38:33;19.70;99.90
12632;DHT22;6381;45.748;12.106;2023-08-06T01:41:02;19.40;99.90
12632;DHT22;6381;45.748;12.106;2023-08-06T01:43:31;19.40;99.90
12632;DHT22;6381;45.748;12.106;2023-08-06T01:46:00;19.40;99.90
12632;DHT22;6381;45.748;12.106;2023-08-06T01:48:30;19.70;99.90
12632;DHT22;6381;45.748;12.106;2023-08-06T01:51:01;19.40;99.90
12632;DHT22;6381;45.748;12.106;2023-08-06T01:53:30;19.40;99.90
12632;DHT22;6381;45.748;12.106;2023-08-06T01:55:59;19.80;99.90
12632;DHT22;6381;45.748;12.106;2023-08-06T01:58:28;19.60;99.90
12632;DHT22;6381;45.748;12.106;2023-08-06T02:00:58;19.80;99.90
12632;DHT22;6381;45.748;12.106;2023-08-06T02:03:27;19.20;99.90
12632;DHT22;6381;45.748;12.106;2023-08-06T02:05:56;19.30;99.90
12632;DHT22;6381;45.748;12.106;2023-08-06T02:08:27;19.30;99.90
12632;DHT22;6381;45.748;12.106;2023-08-06T02:10:56;19.30;99.90
12632;DHT22;6381;45.748;12.106;2023-08-06T02:13:27;19.20;99.90
12632;DHT22;6381;45.748;12.106;2023-08-06T02:15:56;19.00;99.90
12632;DHT22;6381;45.748;12.106;2023-08-06T02:18:25;19.10;99.90
12632;DHT22;6381;45.748;12.106;2023-08-06T02:20:58;19.10;99.90
12632;DHT22;6381;45.748;12.106;2023-08-06T02:23:30;19.10;99.90
12632;DHT22;6381;45.748;12.106;2023-08-06T02:26:00;19.10;99.90
12632;DHT22;6381;45.748;12.106;2023-08-06T02:28:30;19.00;99.90
12632;DHT22;6381;45.748;12.106;2023-08-06T02:30:59;19.00;99.90
12632;DHT22;6381;45.748;12.106;2023-08-06T02:33:29;18.90;99.90
12632;DHT22;6381;45.748;12.106;2023-08-06T02:36:01;19.00;99.90
12632;DHT22;6381;45.748;12.106;2023-08-06T02:38:33;19.10;99.90
12632;DHT22;6381;45.748;12.106;2023-08-06T02:41:03;19.10;99.90
12632;DHT22;6381;45.748;12.106;2023-08-06T02:43:32;19.30;99.90
12632;DHT22;6381;45.748;12.106;2023-08-06T02:46:01;19.10;99.90
12632;DHT22;6381;45.748;12.106;2023-08-06T02:48:31;19.40;99.90
12632;DHT22;6381;45.748;12.106;2023-08-06T02:51:02;19.40;99.90
12632;DHT22;6381;45.748;12.106;2023-08-06T02:53:36;19.00;99.90
12632;DHT22;6381;45.748;12.106;2023-08-06T02:56:08;19.20;99.90
12632;DHT22;6381;45.748;12.106;2023-08-06T02:58:53;18.70;99.90
12632;DHT22;6381;45.748;12.106;2023-08-06T03:01:32;18.70;99.90
12632;DHT22;6381;45.748;12.106;2023-08-06T03:04:07;19.00;99.90
12632;DHT22;6381;45.748;12.106;2023-08-06T03:06:41;18.70;99.90
12632;DHT22;6381;45.748;12.106;2023-08-06T03:09:12;18.60;99.90
12632;DHT22;6381;45.748;12.106;2023-08-06T03:11:41;18.60;99.90
12632;DHT22;6381;45.748;12.106;2023-08-06T03:14:14;18.70;99.90
12632;DHT22;6381;45.748;12.106;2023-08-06T03:16:44;18.50;99.90
12632;DHT22;6381;45.748;12.106;2023-08-06T03:19:17;19.00;99.90
12632;DHT22;6381;45.748;12.106;2023-08-06T03:21:47;19.10;99.90
12632;DHT22;6381;45.748;12.106;2023-08-06T03:24:19;19.10;99.90
12632;DHT22;6381;45.748;12.106;2023-08-06T03:26:48;18.80;99.90
12632;DHT22;6381;45.748;12.106;2023-08-06T03:29:17;19.10;99.90
12632;DHT22;6381;45.748;12.106;2023-08-06T03:31:48;19.00;99.90
12632;DHT22;6381;45.748;12.106;2023-08-06T03:34:17;19.00;99.90
12632;DHT22;6381;45.748;12.106;2023-08-06T03:36:48;19.00;99.90
12632;DHT22;6381;45.748;12.106;2023-08-06T03:39:19;19.00;99.90
12632;DHT22;6381;45.748;12.106;2023-08-06T03:41:48;18.70;99.90
12632;DHT22;6381;45.748;12.106;2023-08-06T03:44:18;18.70;99.90
12632;DHT22;6381;45.748;12.106;2023-08-06T03:46:48;18.90;99.90
12632;DHT22;6381;45.748;12.106;2023-08-06T03:49:17;18.70;99.90
12632;DHT22;6381;45.748;12.106;2023-08-06T03:51:46;18.90;99.90
12632;DHT22;6381;45.748;12.106;2023-08-06T03:54:16;19.00;99.90
12632;DHT22;6381;45.748;12.106;2023-08-06T03:56:47;19.20;99.90
12632;DHT22;6381;45.748;12.106;2023-08-06T03:59:16;19.30;99.90
12632;DHT22;6381;45.748;12.106;2023-08-06T04:01:47;19.10;99.90
12632;DHT22;6381;45.748;12.106;2023-08-06T04:04:17;18.70;99.90
12632;DHT22;6381;45.748;12.106;2023-08-06T04:06:46;18.80;99.90
12632;DHT22;6381;45.748;12.106;2023-08-06T04:09:15;18.70;99.90
12632;DHT22;6381;45.748;12.106;2023-08-06T04:11:44;19.10;99.90
12632;DHT22;6381;45.748;12.106;2023-08-06T04:14:15;18.80;99.90
12632;DHT22;6381;45.748;12.106;2023-08-06T04:16:44;18.90;99.90
12632;DHT22;6381;45.748;12.106;2023-08-06T04:19:14;18.80;99.90
12632;DHT22;6381;45.748;12.106;2023-08-06T04:21:44;19.00;99.90
12632;DHT22;6381;45.748;12.106;2023-08-06T04:24:13;18.50;99.90
12632;DHT22;6381;45.748;12.106;2023-08-06T04:26:42;18.80;99.90
12632;DHT22;6381;45.748;12.106;2023-08-06T04:29:12;18.70;99.90
12632;DHT22;6381;45.748;12.106;2023-08-06T04:31:42;18.70;99.90
12632;DHT22;6381;45.748;12.106;2023-08-06T04:34:13;19.00;99.90
12632;DHT22;6381;45.748;12.106;2023-08-06T04:36:42;19.10;99.90
12632;DHT22;6381;45.748;12.106;2023-08-06T04:39:12;19.10;99.90
12632;DHT22;6381;45.748;12.106;2023-08-06T04:41:41;19.10;99.90
12632;DHT22;6381;45.748;12.106;2023-08-06T04:44:10;18.60;99.90
12632;DHT22;6381;45.748;12.106;2023-08-06T04:46:39;18.40;99.90
12632;DHT22;6381;45.748;12.106;2023-08-06T04:49:10;18.70;99.90
12632;DHT22;6381;45.748;12.106;2023-08-06T04:51:39;18.50;99.90
12632;DHT22;6381;45.748;12.106;2023-08-06T04:54:09;18.60;99.90
12632;DHT22;6381;45.748;12.106;2023-08-06T04:56:38;18.90;99.90
12632;DHT22;6381;45.748;12.106;2023-08-06T04:59:07;18.60;99.90
12632;DHT22;6381;45.748;12.106;2023-08-06T05:01:37;18.50;99.90
12632;DHT22;6381;45.748;12.106;2023-08-06T05:04:06;18.30;99.90
12632;DHT22;6381;45.748;12.106;2023-08-06T05:06:37;18.80;99.90
12632;DHT22;6381;45.748;12.106;2023-08-06T05:09:08;18.60;99.90
12632;DHT22;6381;45.748;12.106;2023-08-06T05:11:37;18.90;99.90
12632;DHT22;6381;45.748;12.106;2023-08-06T05:14:06;18.80;99.90
12632;DHT22;6381;45.748;12.106;2023-08-06T05:16:35;18.70;99.90
12632;DHT22;6381;45.748;12.106;2023-08-06T05:19:04;18.80;99.90
12632;DHT22;6381;45.748;12.106;2023-08-06T05:21:37;18.80;99.90
12632;DHT22;6381;45.748;12.106;2023-08-06T05:24:07;19.00;99.90
12632;DHT22;6381;45.748;12.106;2023-08-06T05:26:37;18.90;99.90
12632;DHT22;6381;45.748;12.106;2023-08-06T05:29:06;18.90;99.90
12632;DHT22;6381;45.748;12.106;2023-08-06T05:31:35;18.90;99.90
12632;DHT22;6381;45.748;12.106;2023-08-06T05:34:04;19.00;99.90
12632;DHT22;6381;45.748;12.106;2023-08-06T05:36:37;19.00;99.90
12632;DHT22;6381;45.748;12.106;2023-08-06T05:39:07;19.30;99.90
12632;DHT22;6381;45.748;12.106;2023-08-06T05:41:36;19.10;99.90
12632;DHT22;6381;45.748;12.106;2023-08-06T05:44:05;19.20;99.90
12632;DHT22;6381;45.748;12.106;2023-08-06T05:46:34;19.60;99.90
12632;DHT22;6381;45.748;12.106;2023-08-06T05:49:04;18.80;99.90
12632;DHT22;6381;45.748;12.106;2023-08-06T05:51:33;19.10;99.90
12632;DHT22;6381;45.748;12.106;2023-08-06T05:54:04;19.30;99.90
12632;DHT22;6381;45.748;12.106;2023-08-06T05:56:33;19.10;99.90
12632;DHT22;6381;45.748;12.106;2023-08-06T05:59:02;19.30;99.90
12632;DHT22;6381;45.748;12.106;2023-08-06T06:01:32;19.20;99.90
12632;DHT22;6381;45.748;12.106;2023-08-06T06:04:02;19.70;99.90
12632;DHT22;6381;45.748;12.106;2023-08-06T06:06:31;20.00;99.90
12632;DHT22;6381;45.748;12.106;2023-08-06T06:09:01;19.60;99.90
12632;DHT22;6381;45.748;12.106;2023-08-06T06:11:31;19.70;99.90
12632;DHT22;6381;45.748;12.106;2023-08-06T06:14:01;19.50;99.90
12632;DHT22;6381;45.748;12.106;2023-08-06T06:16:30;19.70;99.90
12632;DHT22;6381;45.748;12.106;2023-08-06T06:18:59;19.80;99.90
12632;DHT22;6381;45.748;12.106;2023-08-06T06:21:28;19.60;99.90
12632;DHT22;6381;45.748;12.106;2023-08-06T06:23:57;19.90;99.90
12632;DHT22;6381;45.748;12.106;2023-08-06T06:26:27;19.80;99.90
12632;DHT22;6381;45.748;12.106;2023-08-06T06:28:57;20.30;99.90
12632;DHT22;6381;45.748;12.106;2023-08-06T06:31:29;20.10;99.90
12632;DHT22;6381;45.748;12.106;2023-08-06T06:33:58;20.20;99.90
12632;DHT22;6381;45.748;12.106;2023-08-06T06:36:30;20.20;99.90
12632;DHT22;6381;45.748;12.106;2023-08-06T06:38:59;20.30;99.90
12632;DHT22;6381;45.748;12.106;2023-08-06T06:41:28;20.20;99.90
12632;DHT22;6381;45.748;12.106;2023-08-06T06:44:08;20.30;99.90
12632;DHT22;6381;45.748;12.106;2023-08-06T06:46:38;20.30;99.90
12632;DHT22;6381;45.748;12.106;2023-08-06T06:49:07;20.80;99.90
12632;DHT22;6381;45.748;12.106;2023-08-06T06:51:36;20.50;99.90
12632;DHT22;6381;45.748;12.106;2023-08-06T06:54:07;20.70;99.90
12632;DHT22;6381;45.748;12.106;2023-08-06T06:56:36;20.60;99.90
12632;DHT22;6381;45.748;12.106;2023-08-06T06:59:07;20.70;99.90
12632;DHT22;6381;45.748;12.106;2023-08-06T07:01:36;20.60;99.90
12632;DHT22;6381;45.748;12.106;2023-08-06T07:04:05;20.50;99.90
12632;DHT22;6381;45.748;12.106;2023-08-06T07:06:34;20.70;99.90
12632;DHT22;6381;45.748;12.106;2023-08-06T07:09:03;20.70;99.90
12632;DHT22;6381;45.748;12.106;2023-08-06T07:11:33;20.70;99.90
12632;DHT22;6381;45.748;12.106;2023-08-06T07:14:02;20.90;99.90
12632;DHT22;6381;45.748;12.106;2023-08-06T07:16:33;20.80;99.90
12632;DHT22;6381;45.748;12.106;2023-08-06T07:19:02;21.40;99.90
12632;DHT22;6381;45.748;12.106;2023-08-06T07:21:33;21.40;99.90
12632;DHT22;6381;45.748;12.106;2023-08-06T07:24:02;21.10;99.90
12632;DHT22;6381;45.748;12.106;2023-08-06T07:26:31;21.30;99.90
12632;DHT22;6381;45.748;12.106;2023-08-06T07:29:00;21.00;99.90
12632;DHT22;6381;45.748;12.106;2023-08-06T07:31:30;21.50;99.90
12632;DHT22;6381;45.748;12.106;2023-08-06T07:34:01;21.50;99.90
12632;DHT22;6381;45.748;12.106;2023-08-06T07:36:30;21.70;99.90
12632;DHT22;6381;45.748;12.106;2023-08-06T07:39:00;21.50;99.90
12632;DHT22;6381;45.748;12.106;2023-08-06T07:41:29;21.70;99.90
12632;DHT22;6381;45.748;12.106;2023-08-06T07:43:58;21.60;99.90
12632;DHT22;6381;45.748;12.106;2023-08-06T07:46:29;21.80;99.90
12632;DHT22;6381;45.748;12.106;2023-08-06T07:49:03;22.10;99.90
12632;DHT22;6381;45.748;12.106;2023-08-06T07:51:32;22.40;99.90
12632;DHT22;6381;45.748;12.106;2023-08-06T07:54:02;22.30;99.90
12632;DHT22;6381;45.748;12.106;2023-08-06T07:56:31;22.70;99.90
12632;DHT22;6381;45.748;12.106;2023-08-06T07:59:00;22.20;99.90
12632;DHT22;6381;45.748;12.106;2023-08-06T08:01:30;22.20;99.90
12632;DHT22;6381;45.748;12.106;2023-08-06T08:03:59;22.50;99.90
12632;DHT22;6381;45.748;12.106;2023-08-06T08:06:29;22.40;99.90
12632;DHT22;6381;45.748;12.106;2023-08-06T08:08:59;22.60;99.90
12632;DHT22;6381;45.748;12.106;2023-08-06T08:11:28;22.40;99.90
12632;DHT22;6381;45.748;12.106;2023-08-06T08:13:57;22.30;99.90
12632;DHT22;6381;45.748;12.106;2023-08-06T08:16:26;22.70;99.90
12632;DHT22;6381;45.748;12.106;2023-08-06T08:18:57;22.20;99.90
12632;DHT22;6381;45.748;12.106;2023-08-06T08:21:28;22.10;99.90
12632;DHT22;6381;45.748;12.106;2023-08-06T08:23:59;22.40;99.90
12632;DHT22;6381;45.748;12.106;2023-08-06T08:26:29;22.20;99.90
12632;DHT22;6381;45.748;12.106;2023-08-06T08:28:58;21.80;99.90
12632;DHT22;6381;45.748;12.106;2023-08-06T08:31:27;21.50;99.90
12632;DHT22;6381;45.748;12.106;2023-08-06T08:33:57;22.00;99.90
12632;DHT22;6381;45.748;12.106;2023-08-06T08:36:30;22.20;99.90
12632;DHT22;6381;45.748;12.106;2023-08-06T08:38:59;22.40;99.90
12632;DHT22;6381;45.748;12.106;2023-08-06T08:41:29;22.80;99.90
12632;DHT22;6381;45.748;12.106;2023-08-06T08:43:59;22.80;99.90
12632;DHT22;6381;45.748;12.106;2023-08-06T08:46:30;22.90;99.90
12632;DHT22;6381;45.748;12.106;2023-08-06T08:49:02;22.80;99.90
12632;DHT22;6381;45.748;12.106;2023-08-06T08:51:34;22.70;99.90
12632;DHT22;6381;45.748;12.106;2023-08-06T08:54:04;22.90;99.90
12632;DHT22;6381;45.748;12.106;2023-08-06T08:56:36;23.00;99.90
12632;DHT22;6381;45.748;12.106;2023-08-06T08:59:05;23.00;99.90
12632;DHT22;6381;45.748;12.106;2023-08-06T09:01:35;23.20;99.90
12632;DHT22;6381;45.748;12.106;2023-08-06T09:04:05;23.20;99.90
12632;DHT22;6381;45.748;12.106;2023-08-06T09:06:37;23.20;99.90
12632;DHT22;6381;45.748;12.106;2023-08-06T09:09:09;23.70;99.90
12632;DHT22;6381;45.748;12.106;2023-08-06T09:11:43;23.60;99.90
12632;DHT22;6381;45.748;12.106;2023-08-06T09:14:13;23.40;99.90
12632;DHT22;6381;45.748;12.106;2023-08-06T09:16:42;23.40;99.90
12632;DHT22;6381;45.748;12.106;2023-08-06T09:19:13;23.80;99.90
12632;DHT22;6381;45.748;12.106;2023-08-06T09:21:46;23.80;99.90
12632;DHT22;6381;45.748;12.106;2023-08-06T09:24:17;23.90;99.90
12632;DHT22;6381;45.748;12.106;2023-08-06T09:26:46;23.90;99.90
12632;DHT22;6381;45.748;12.106;2023-08-06T09:29:15;23.70;99.90
12632;DHT22;6381;45.748;12.106;2023-08-06T09:31:45;23.90;99.90
12632;DHT22;6381;45.748;12.106;2023-08-06T09:34:16;23.70;99.90
12632;DHT22;6381;45.748;12.106;2023-08-06T09:36:49;24.10;99.90
12632;DHT22;6381;45.748;12.106;2023-08-06T09:39:21;24.00;99.90
12632;DHT22;6381;45.748;12.106;2023-08-06T09:41:55;24.00;99.90
12632;DHT22;6381;45.748;12.106;2023-08-06T09:44:26;24.10;99.90
12632;DHT22;6381;45.748;12.106;2023-08-06T09:46:57;24.00;98.50
12632;DHT22;6381;45.748;12.106;2023-08-06T09:49:28;24.10;98.10
12632;DHT22;6381;45.748;12.106;2023-08-06T09:51:59;23.70;97.40
12632;DHT22;6381;45.748;12.106;2023-08-06T09:54:29;24.40;97.90
12632;DHT22;6381;45.748;12.106;2023-08-06T09:56:58;24.70;95.70
12632;DHT22;6381;45.748;12.106;2023-08-06T09:59:28;24.60;94.80
12632;DHT22;6381;45.748;12.106;2023-08-06T10:01:58;24.70;96.20
12632;DHT22;6381;45.748;12.106;2023-08-06T10:04:29;24.90;94.90
12632;DHT22;6381;45.748;12.106;2023-08-06T10:07:09;25.20;95.40
12632;DHT22;6381;45.748;12.106;2023-08-06T10:09:39;24.90;94.60
12632;DHT22;6381;45.748;12.106;2023-08-06T10:12:09;24.40;95.20
12632;DHT22;6381;45.748;12.106;2023-08-06T10:14:39;24.60;94.70
12632;DHT22;6381;45.748;12.106;2023-08-06T10:17:12;24.40;93.10
12632;DHT22;6381;45.748;12.106;2023-08-06T10:19:41;24.40;91.80
12632;DHT22;6381;45.748;12.106;2023-08-06T10:22:13;24.30;92.80
12632;DHT22;6381;45.748;12.106;2023-08-06T10:24:48;24.40;92.10
12632;DHT22;6381;45.748;12.106;2023-08-06T10:27:21;24.70;92.20
12632;DHT22;6381;45.748;12.106;2023-08-06T10:29:50;24.30;91.70
12632;DHT22;6381;45.748;12.106;2023-08-06T10:32:21;24.10;92.20
12632;DHT22;6381;45.748;12.106;2023-08-06T10:34:57;23.70;93.00
12632;DHT22;6381;45.748;12.106;2023-08-06T10:37:47;23.90;95.40
12632;DHT22;6381;45.748;12.106;2023-08-06T10:40:21;24.50;95.40
12632;DHT22;6381;45.748;12.106;2023-08-06T10:42:51;24.90;93.00
12632;DHT22;6381;45.748;12.106;2023-08-06T10:45:21;25.10;95.10
12632;DHT22;6381;45.748;12.106;2023-08-06T10:47:56;24.90;95.20
12632;DHT22;6381;45.748;12.106;2023-08-06T10:50:27;24.70;95.20
12632;DHT22;6381;45.748;12.106;2023-08-06T10:52:57;24.80;96.00
12632;DHT22;6381;45.748;12.106;2023-08-06T10:55:32;25.00;94.30
12632;DHT22;6381;45.748;12.106;2023-08-06T10:58:01;25.80;93.60
12632;DHT22;6381;45.748;12.106;2023-08-06T11:00:31;26.00;91.50
12632;DHT22;6381;45.748;12.106;2023-08-06T11:03:01;25.80;92.10
12632;DHT22;6381;45.748;12.106;2023-08-06T11:05:32;25.70;91.80
12632;DHT22;6381;45.748;12.106;2023-08-06T11:08:03;25.70;92.60
12632;DHT22;6381;45.748;12.106;2023-08-06T11:10:33;26.30;90.70
12632;DHT22;6381;45.748;12.106;2023-08-06T11:13:03;26.30;91.40
12632;DHT22;6381;45.748;12.106;2023-08-06T11:15:35;25.90;90.40
12632;DHT22;6381;45.748;12.106;2023-08-06T11:18:04;25.80;93.10
12632;DHT22;6381;45.748;12.106;2023-08-06T11:20:33;25.40;94.10
12632;DHT22;6381;45.748;12.106;2023-08-06T11:23:04;25.40;94.30
12632;DHT22;6381;45.748;12.106;2023-08-06T11:25:36;25.30;92.30
12632;DHT22;6381;45.748;12.106;2023-08-06T11:28:06;25.20;93.10
12632;DHT22;6381;45.748;12.106;2023-08-06T11:30:37;25.10;93.20
12632;DHT22;6381;45.748;12.106;2023-08-06T11:33:08;25.20;93.50
12632;DHT22;6381;45.748;12.106;2023-08-06T11:35:38;24.80;92.90
12632;DHT22;6381;45.748;12.106;2023-08-06T11:38:09;26.10;94.00
12632;DHT22;6381;45.748;12.106;2023-08-06T11:40:38;26.40;92.70
12632;DHT22;6381;45.748;12.106;2023-08-06T11:43:07;25.70;92.60
12632;DHT22;6381;45.748;12.106;2023-08-06T11:45:38;25.40;92.90
12632;DHT22;6381;45.748;12.106;2023-08-06T11:48:07;25.30;92.90
12632;DHT22;6381;45.748;12.106;2023-08-06T11:50:38;25.20;92.00
12632;DHT22;6381;45.748;12.106;2023-08-06T11:53:12;25.10;94.80
12632;DHT22;6381;45.748;12.106;2023-08-06T11:55:42;25.20;93.90
12632;DHT22;6381;45.748;12.106;2023-08-06T11:58:12;25.20;93.00
12632;DHT22;6381;45.748;12.106;2023-08-06T12:00:42;25.30;95.50
12632;DHT22;6381;45.748;12.106;2023-08-06T12:03:12;25.60;94.40
12632;DHT22;6381;45.748;12.106;2023-08-06T12:05:45;25.70;92.90
12632;DHT22;6381;45.748;12.106;2023-08-06T12:08:17;25.30;91.30
12632;DHT22;6381;45.748;12.106;2023-08-06T12:10:46;24.90;91.20
12632;DHT22;6381;45.748;12.106;2023-08-06T12:13:18;25.00;93.40
12632;DHT22;6381;45.748;12.106;2023-08-06T12:15:47;26.30;91.80
12632;DHT22;6381;45.748;12.106;2023-08-06T12:18:17;27.00;88.20
12632;DHT22;6381;45.748;12.106;2023-08-06T12:20:50;26.80;84.00
12632;DHT22;6381;45.748;12.106;2023-08-06T12:23:23;27.90;81.60
12632;DHT22;6381;45.748;12.106;2023-08-06T12:25:53;27.90;80.60
12632;DHT22;6381;45.748;12.106;2023-08-06T12:28:22;27.50;76.00
12632;DHT22;6381;45.748;12.106;2023-08-06T12:30:51;27.80;80.50
12632;DHT22;6381;45.748;12.106;2023-08-06T12:33:22;28.50;77.80
12632;DHT22;6381;45.748;12.106;2023-08-06T12:35:52;27.00;76.40
12632;DHT22;6381;45.748;12.106;2023-08-06T12:38:24;27.50;76.60
12632;DHT22;6381;45.748;12.106;2023-08-06T12:40:53;26.60;77.20
12632;DHT22;6381;45.748;12.106;2023-08-06T12:43:22;26.60;82.80
12632;DHT22;6381;45.748;12.106;2023-08-06T12:45:51;28.40;77.80
12632;DHT22;6381;45.748;12.106;2023-08-06T12:48:21;28.80;77.60
12632;DHT22;6381;45.748;12.106;2023-08-06T12:50:50;28.50;75.30
12632;DHT22;6381;45.748;12.106;2023-08-06T12:53:19;28.80;75.50
12632;DHT22;6381;45.748;12.106;2023-08-06T12:55:52;29.10;71.80
12632;DHT22;6381;45.748;12.106;2023-08-06T12:58:21;28.40;73.20
12632;DHT22;6381;45.748;12.106;2023-08-06T13:00:51;28.00;73.10
12632;DHT22;6381;45.748;12.106;2023-08-06T13:03:22;28.90;73.00
12632;DHT22;6381;45.748;12.106;2023-08-06T13:05:51;28.60;71.60
12632;DHT22;6381;45.748;12.106;2023-08-06T13:08:20;27.20;71.60
12632;DHT22;6381;45.748;12.106;2023-08-06T13:10:49;26.80;75.60
12632;DHT22;6381;45.748;12.106;2023-08-06T13:13:20;26.60;76.20
12632;DHT22;6381;45.748;12.106;2023-08-06T13:15:50;26.60;77.60
12632;DHT22;6381;45.748;12.106;2023-08-06T13:18:19;26.70;80.10
12632;DHT22;6381;45.748;12.106;2023-08-06T13:20:48;26.90;80.90
12632;DHT22;6381;45.748;12.106;2023-08-06T13:23:20;27.50;80.40
12632;DHT22;6381;45.748;12.106;2023-08-06T13:25:49;28.30;74.00
12632;DHT22;6381;45.748;12.106;2023-08-06T13:28:23;29.60;73.90
12632;DHT22;6381;45.748;12.106;2023-08-06T13:30:54;29.10;69.60
12632;DHT22;6381;45.748;12.106;2023-08-06T13:33:24;29.20;70.90
12632;DHT22;6381;45.748;12.106;2023-08-06T13:35:54;29.40;69.70
12632;DHT22;6381;45.748;12.106;2023-08-06T13:38:23;29.10;68.20
12632;DHT22;6381;45.748;12.106;2023-08-06T13:40:53;28.50;69.20
12632;DHT22;6381;45.748;12.106;2023-08-06T13:43:24;27.20;70.90
12632;DHT22;6381;45.748;12.106;2023-08-06T13:45:55;26.50;74.20
12632;DHT22;6381;45.748;12.106;2023-08-06T13:48:25;26.10;77.00
12632;DHT22;6381;45.748;12.106;2023-08-06T13:50:54;25.60;78.90
12632;DHT22;6381;45.748;12.106;2023-08-06T13:53:23;25.50;80.10
12632;DHT22;6381;45.748;12.106;2023-08-06T13:55:57;25.30;82.40
12632;DHT22;6381;45.748;12.106;2023-08-06T13:58:29;25.30;82.70
12632;DHT22;6381;45.748;12.106;2023-08-06T14:00:59;25.10;84.50
12632;DHT22;6381;45.748;12.106;2023-08-06T14:03:29;25.20;87.90
12632;DHT22;6381;45.748;12.106;2023-08-06T14:05:58;25.00;89.90
12632;DHT22;6381;45.748;12.106;2023-08-06T14:08:30;24.90;90.50
12632;DHT22;6381;45.748;12.106;2023-08-06T14:10:59;24.70;90.40
12632;DHT22;6381;45.748;12.106;2023-08-06T14:13:30;24.60;91.70
12632;DHT22;6381;45.748;12.106;2023-08-06T14:15:59;24.60;95.90
12632;DHT22;6381;45.748;12.106;2023-08-06T14:18:28;24.20;99.90
12632;DHT22;6381;45.748;12.106;2023-08-06T14:20:58;24.00;99.90
12632;DHT22;6381;45.748;12.106;2023-08-06T14:23:27;23.90;91.40
12632;DHT22;6381;45.748;12.106;2023-08-06T14:25:57;23.90;99.90
12632;DHT22;6381;45.748;12.106;2023-08-06T14:28:32;23.20;99.90
12632;DHT22;6381;45.748;12.106;2023-08-06T14:31:07;23.50;99.90
12632;DHT22;6381;45.748;12.106;2023-08-06T14:33:47;23.30;99.90
12632;DHT22;6381;45.748;12.106;2023-08-06T14:36:22;23.50;99.90
12632;DHT22;6381;45.748;12.106;2023-08-06T14:38:52;23.40;99.90
12632;DHT22;6381;45.748;12.106;2023-08-06T14:41:27;25.00;95.20
12632;DHT22;6381;45.748;12.106;2023-08-06T14:43:57;25.80;78.00
12632;DHT22;6381;45.748;12.106;2023-08-06T14:46:27;26.80;70.90
12632;DHT22;6381;45.748;12.106;2023-08-06T14:48:58;27.50;70.80
12632;DHT22;6381;45.748;12.106;2023-08-06T14:51:38;28.80;74.10
12632;DHT22;6381;45.748;12.106;2023-08-06T14:54:10;29.30;72.00
12632;DHT22;6381;45.748;12.106;2023-08-06T14:56:40;29.40;65.00
12632;DHT22;6381;45.748;12.106;2023-08-06T14:59:10;29.70;64.90
12632;DHT22;6381;45.748;12.106;2023-08-06T15:01:40;29.10;63.70
12632;DHT22;6381;45.748;12.106;2023-08-06T15:04:10;29.70;64.30
12632;DHT22;6381;45.748;12.106;2023-08-06T15:06:41;29.40;68.70
12632;DHT22;6381;45.748;12.106;2023-08-06T15:09:11;30.00;67.70
12632;DHT22;6381;45.748;12.106;2023-08-06T15:11:40;30.40;62.70
12632;DHT22;6381;45.748;12.106;2023-08-06T15:14:11;30.50;61.70
12632;DHT22;6381;45.748;12.106;2023-08-06T15:16:42;30.70;61.10
12632;DHT22;6381;45.748;12.106;2023-08-06T15:19:11;31.10;60.20
12632;DHT22;6381;45.748;12.106;2023-08-06T15:21:40;30.90;55.40
12632;DHT22;6381;45.748;12.106;2023-08-06T15:24:11;30.40;55.40
12632;DHT22;6381;45.748;12.106;2023-08-06T15:26:40;30.80;56.10
12632;DHT22;6381;45.748;12.106;2023-08-06T15:29:11;31.00;54.80
12632;DHT22;6381;45.748;12.106;2023-08-06T15:31:40;30.40;53.50
12632;DHT22;6381;45.748;12.106;2023-08-06T15:34:14;28.30;55.00
12632;DHT22;6381;45.748;12.106;2023-08-06T15:36:43;28.30;56.30
12632;DHT22;6381;45.748;12.106;2023-08-06T15:39:13;28.00;56.30
12632;DHT22;6381;45.748;12.106;2023-08-06T15:41:42;27.80;55.80
12632;DHT22;6381;45.748;12.106;2023-08-06T15:44:13;27.80;56.70
12632;DHT22;6381;45.748;12.106;2023-08-06T15:46:43;27.70;57.30
12632;DHT22;6381;45.748;12.106;2023-08-06T15:49:12;27.70;56.40
12632;DHT22;6381;45.748;12.106;2023-08-06T15:51:43;28.50;58.70
12632;DHT22;6381;45.748;12.106;2023-08-06T15:54:12;28.20;59.20
12632;DHT22;6381;45.748;12.106;2023-08-06T15:59:23;27.80;50.30
12632;DHT22;6381;45.748;12.106;2023-08-06T16:01:53;28.20;49.60
12632;DHT22;6381;45.748;12.106;2023-08-06T16:04:26;27.10;51.80
12632;DHT22;6381;45.748;12.106;2023-08-06T16:06:56;27.70;49.90
12632;DHT22;6381;45.748;12.106;2023-08-06T16:09:27;28.40;49.00